U14 OCUP - SL
Results

Jury
TD Hopper AOA D. CAN
Referee Chambers OSL Z. CAN
Chief of Race Munro AOA G. CAN
Other Workers
Start Ref Ref MAN S. CAN
Finish Ref VanHaren MAN S. CAN
Race Admin Rutters MAN K. CAN
Chief of Timing Manuel MAN G. CAN
Technical Data
Course Name
Start 368
Finish 266
Vertical Drop
Length
Homologation 8543/04/07
1st Run 2nd run
Course Setter Keirsteas MAN R. CAN McGregor NSA B. CAN
Number of Gates 43/42 47/46
Homologation 8543/04/07
Forerunner 1 Smart M. CAN Smart M. CAN
Forerunner 2 Uchida L. CAN Uchida L. CAN
Forerunner 3 Priest Z. CAN Priest Z. CAN
Forerunner 4

Applied Penality: 445.73

Weather: OVERSCASTE

Snow:FRESH OVER GROOMED

Temperature Start: -12 Temperature Finish: -12

F:720

Rank Card Bib Name Club YOB Category 1st Run 2nd run Total Time Points
1 78192 91 VAN STRIEN Maxine NATAC 04 U14 39.18 40.49 1:19.67 0
2 84825 38 HARVEY Marisol GLA 04 U14 40.55 42.58 1:23.13 31.27
3 80725 86 NOAKES Alexis GEORG 04 U14 40.56 42.68 1:23.24 32.26
4 82199 53 CALDWELL Zoe GEORG 04 U14 40.49 42.84 1:23.33 33.08
5 81113 105 JENKINS Melanie GEORG 04 U14 40.57 43.23 1:23.80 37.32
6 80732 48 ZEMLA Zoe GEORG 04 U14 41.83 43.64 1:25.47 52.42
7 81493 76 MACGREGOR Kate GEORG 04 U14 42.64 43.13 1:25.77 55.13
8 80672 32 CRAIG Karina CRAIG 04 U14 42.04 43.87 1:25.91 56.39
9 80727 79 ROBERTSON Caroline GEORG 05 U14 42.68 43.43 1:26.11 58.2
10 80812 3 FREYKE Jessica OSLER 04 U14 41.78 45.26 1:27.04 66.6
11 80730 59 SZIKLAI Lauren GEORG 04 U14 43.03 44.42 1:27.45 70.31
12 80823 51 MACDONALD Georgia OSLER 04 U14 42.72 45.19 1:27.91 74.47
13 81092 67 CANTONI Laura GEORG 04 U14 42.90 45.21 1:28.11 76.27
14 81497 6 PODIVINSKY Olivia GEORG 04 U14 43.39 44.97 1:28.36 78.53
15 76643 68 AITKEN Kayleigh GLA 04 U14 43.91 44.48 1:28.39 78.81
16 86220 101 OLSEN Natasha CRAIG 05 U14 43.20 45.28 1:28.48 79.62
17 81102 56 GATCLIFFE Emma GEORG 05 U14 43.84 45.39 1:29.23 86.4
18 77127 12 CHAN Lauren JOZOW 04 U14 43.31 46.84 1:30.15 94.71
19 89489 66 RUSAW Isabella OSLER 04 U14 44.24 46.61 1:30.85 101.04
20 85457 73 CLARK Elli TSCBM 05 U14 45.00 45.86 1:30.86 101.13
21 84837 27 DONNELLY Madison CRAIG 05 U14 45.54 45.77 1:31.31 105.19
22 80667 34 BENSON Claire CRAIG 04 U14 43.90 47.51 1:31.41 106.1
23 78485 5 LEPAGE Sydney JOZOW 04 U14 44.44 47.06 1:31.50 106.91
24 85544 42 HUANG Sian CALDN 04 U14 44.87 46.83 1:31.70 108.72
25 89490 94 BYERS Abbygail DEVGL 04 U14 45.07 46.79 1:31.86 110.16
26 80837 87 STOCK Katie OSLER 04 U14 45.29 46.87 1:32.16 112.88
27 80822 78 LOSSIUS Mia OSLER 04 U14 46.15 46.10 1:32.25 113.69
28 81084 33 VOGEL Eva DEVGL 05 U14 45.04 47.33 1:32.37 114.77
29 81687 98 CONLIFFE Rachael TSCBM 04 U14 46.24 46.49 1:32.73 118.03
30 81146 43 SYMONS Ava OSLER 04 U14 45.52 47.91 1:33.43 124.35
31 81088 104 BIER Charlize GEORG 04 U14 46.48 47.02 1:33.50 124.99
32 80684 65 TURNER Christina CRAIG 04 U14 45.85 48.16 1:34.01 129.59
32 86212 9 SINGER Morgan ALPIN 05 U14 45.05 48.96 1:34.01 129.59
34 80495 41 CROXON Grace CRAIG 04 U14 46.00 48.43 1:34.43 133.39
35 78427 35 DINARDO Olivia JOZOW 05 U14 46.28 48.19 1:34.47 133.75
36 89503 44 MOYSEY Sabine OSLER 04 U14 45.71 48.78 1:34.49 133.93
37 84846 96 HARGARTEN Laine CALDN 04 U14 45.81 48.72 1:34.53 134.29
38 80726 61 PHELPS Erica GEORG 05 U14 46.23 48.61 1:34.84 137.1
39 81070 49 LEAIST Natalie CRAIG 04 U14 46.15 48.76 1:34.91 137.73
40 85296 26 TURNER Sofie CALDN 04 U14 46.37 49.89 1:36.26 149.93
41 85738 16 WEAMES Camryn MSFLD 05 U14 46.74 50.23 1:36.97 156.34
42 78408 75 COPNICK Sarah TSCBM 04 U14 47.65 49.36 1:37.01 156.71
43 79130 37 FREIDEL Lou TSCBM 04 U14 47.35 49.77 1:37.12 157.7
44 79149 1 VINCE Isabella BEAVR 04 U14 47.11 50.35 1:37.46 160.77
45 88241 21 STOPPENBRINK Katie MSFLD 05 U14 46.67 50.98 1:37.65 162.49
46 76233 72 RUDENKO Larissa ALPIN 05 U14 47.74 50.03 1:37.77 163.57
47 76743 7 KALINS Nora TSCBM 05 U14 48.02 50.20 1:38.22 167.64
48 78474 71 KENDELL Trinity CRAIG 04 U14 49.18 49.39 1:38.57 170.8
49 80821 60 LOCHRAN Mackenzie OSLER 04 U14 47.45 51.78 1:39.23 176.77
50 80842 40 SHULMAN Ilyssa GLA 05 U14 48.38 50.91 1:39.29 177.31
51 80703 93 SZWEZ Laura DEVGL 04 U14 48.87 50.43 1:39.30 177.4
52 78747 8 IACOBUCCI Kate BEAVR 04 U14 47.38 51.94 1:39.32 177.58
53 76808 62 PERRY Juliette TSCBM 04 U14 47.75 51.64 1:39.39 178.22
54 80689 77 COITO Kate DEVGL 04 U14 48.83 50.71 1:39.54 179.57
55 82249 92 OLIVER Rylan BEAVR 04 U14 47.10 52.73 1:39.83 182.19
55 80708 28 ADAIR Safia GEORG 05 U14 48.02 51.81 1:39.83 182.19
57 74790 81 DIMKINA Kalina ALPIN 05 U14 50.05 51.32 1:41.37 196.11
58 84699 15 BUSCH Sally CRAIG 05 U14 48.96 52.48 1:41.44 196.74
59 87013 20 CANNON Marissa CALDN 05 U14 48.45 53.72 1:42.17 203.34
60 86171 64 IRELAND Evy OSLER 05 U14 50.32 52.14 1:42.46 205.96
61 82207 4 TERNER Amaris GEORG 05 U14 49.75 53.13 1:42.88 209.76
62 84757 52 WATT Jennifer OSLER 05 U14 50.98 52.61 1:43.59 216.17
63 72087 103 RIDE Madison DEVGL 05 U14 52.29 52.51 1:44.80 227.11
64 86213 45 THOMPSON Charlotte ALPIN 05 U14 51.40 53.61 1:45.01 229
65 84758 46 WATT Lindsay OSLER 05 U14 51.19 55.66 1:46.85 245.63
66 85314 88 PRIEST Elliette MSFLD 04 U14 53.13 55.83 1:48.96 264.7
67 87019 70 HUTTON Maggie CALDN 05 U14 52.20 57.60 1:49.80 272.29
68 80624 97 MORRISON Jaden ALPIN 05 U14 55.07 55.42 1:50.49 278.53
69 80370 18 CARTER Spencer GLA 05 U14 52.90 58.26 1:51.16 284.58
70 86125 69 O'BRIEN Ciara OSLER 05 U14 55.86 58.83 1:54.69 316.49
999 86126 84 MCOUAT Neve OSLER 05 U14 DNS 0
999 81137 14 WESSINGER Hailey GEORG 05 U14 DNS 0
999 78422 85 DENOMME Abigail NATAC 04 U14 DNF 44.13 0
999 80664 99 ATKINSON Lindsay CRAIG 04 U14 DNF 44.84 0
999 78188 36 SHAWYER Emma TSCBM 04 U14 DNF 50.02 0
999 82175 55 RUDSON Jordyn ALPIN 04 U14 DNF 0
999 81876 80 THOMSON Reese ALPIN 04 U14 DNF 0
999 87072 47 HEISZ Jamie MSFLD 05 U14 DNF 48.13 0
999 81091 11 BROWN Eliza GEORG 05 U14 DNF 55.05 0
999 80619 54 HAWTIN Elle ALPIN 04 U14 DSQ - 44 45.61 0
999 85474 22 TRAN-CHAPMAN Sophie MSFLD 04 U14 DSQ - 43 0
999 80368 82 SAVOY Stephanie CALDN 04 U14 DSQ - 44 51.81 0
999 87062 25 KUMMER Kaleigh JOZOW 04 U14 DSQ - 43 0
999 86115 83 FRANKS Taylor OSLER 05 U14 DSQ - 43 48.15 0
999 79133 63 HUNTER Ava GEORG 05 U14 DSQ - 43 48.75 0
999 88248 58 WIGGAN Sophie CALDN 05 U14 DSQ - 43 53.88 0
999 88417 39 MCINTYRE SALINAS Surine CALDN 05 U14 DSQ - 44 0
999 85444 31 RAYMOND Tessa CRAIG 05 U14 DSQ - 44 47.40 0
999 78516 30 MURDOCH Antonia JOZOW 05 U14 DSQ - 43 0
999 85777 23 ROBINSON Olivia CRAIG 05 U14 DSQ - 44 50.15 0
999 80816 13 HILLIER Kyra OSLER 04 U14 42.26 DNF 0
999 82204 29 SEWELL Lily NATAC 04 U14 40.67 DNF 0
999 81869 90 WALL Gabby ALPIN 05 U14 44.85 DNF 0
999 80369 89 CARTER Sara GLA 05 U14 46.72 DNF 0
999 81099 24 EASTWOOD Jordan GEORG 05 U14 40.66 DNF 0
999 82448 74 GILDAY Ellen DEVGL 04 U14 42.96 DSQ - 46 0
999 80818 57 HUNTER Sophie OSLER 04 U14 43.02 DSQ - 46 0
999 81503 19 WHITE Elizabeth GEORG 04 U14 41.70 DSQ - 44 0
999 78618 10 WAYLAND Lauren JOZOW 05 U14 42.46 DSQ - 46 0
999 78175 2 GINGERICH Chloe TSCBM 04 U14 45.18 DSQ - 46 0
07/01/2018 / Mansfield / NAT18.5115
© MECTiming All Rights Reserverd 2018